createdAt,value
2018-07-10T00:00:07.324Z,18.25
2018-07-10T00:01:07.312Z,18.32
2018-07-10T00:02:07.296Z,18.33
2018-07-10T00:03:07.285Z,18.26
2018-07-10T00:04:07.270Z,18.27
2018-07-10T00:05:07.259Z,18.29
2018-07-10T00:06:07.245Z,18.45
2018-07-10T00:07:07.234Z,18.39
2018-07-10T00:08:07.274Z,18.41
2018-07-10T00:09:07.204Z,18.41
2018-07-10T00:10:07.190Z,18.36
2018-07-10T00:11:07.176Z,18.35
2018-07-10T00:12:07.164Z,18.29
2018-07-10T00:13:07.153Z,18.37
2018-07-10T00:14:07.133Z,18.35
2018-07-10T00:15:07.121Z,18.44
2018-07-10T00:16:07.108Z,18.30
2018-07-10T00:17:07.095Z,18.42
2018-07-10T00:18:07.081Z,18.39
2018-07-10T00:19:07.070Z,18.35
2018-07-10T00:20:07.054Z,18.33
2018-07-10T00:21:07.040Z,18.33
2018-07-10T00:22:07.025Z,18.37
2018-07-10T00:23:07.011Z,18.41
2018-07-10T00:24:07.000Z,18.41
2018-07-10T00:25:06.988Z,18.42
2018-07-10T00:26:06.976Z,18.47
2018-07-10T00:27:06.957Z,18.57
2018-07-10T00:28:06.946Z,18.51
2018-07-10T00:29:06.938Z,18.51
2018-07-10T00:30:06.917Z,18.37
2018-07-10T00:31:06.913Z,18.41
2018-07-10T00:32:06.890Z,18.33
2018-07-10T00:33:06.887Z,18.39
2018-07-10T00:34:06.871Z,18.33
2018-07-10T00:35:06.855Z,18.33
2018-07-10T00:36:06.837Z,18.23
2018-07-10T00:37:06.828Z,18.26
2018-07-10T00:38:06.810Z,18.27
2018-07-10T00:39:06.804Z,18.26
2018-07-10T00:40:06.783Z,18.41
2018-07-10T00:41:06.779Z,18.35
2018-07-10T00:42:06.759Z,18.29
2018-07-10T00:43:06.741Z,18.27
2018-07-10T00:44:06.729Z,18.27
2018-07-10T00:45:06.718Z,18.15
2018-07-10T00:46:06.701Z,18.05
2018-07-10T00:47:06.692Z,17.99
2018-07-10T00:48:06.672Z,18.02
2018-07-10T00:49:06.660Z,18.14
2018-07-10T00:50:06.655Z,18.15
2018-07-10T00:51:06.633Z,18.10
2018-07-10T00:52:06.620Z,18.08
2018-07-10T00:53:06.607Z,18.08
2018-07-10T00:54:06.591Z,18.08
2018-07-10T00:55:06.580Z,18.00
2018-07-10T00:56:06.564Z,17.99
2018-07-10T00:57:06.553Z,18.08
2018-07-10T00:58:06.536Z,18.12
2018-07-10T00:59:06.524Z,18.14
2018-07-10T01:00:06.517Z,18.15
2018-07-10T01:01:06.508Z,18.12
2018-07-10T01:02:06.484Z,18.17
2018-07-10T01:03:06.470Z,18.15
2018-07-10T01:04:06.456Z,18.12
2018-07-10T01:05:06.445Z,18.21
2018-07-10T01:06:06.428Z,18.17
2018-07-10T01:07:06.413Z,18.27
2018-07-10T01:08:06.402Z,18.29
2018-07-10T01:09:06.387Z,18.35
2018-07-10T01:10:06.388Z,18.37
2018-07-10T01:11:06.360Z,18.26
2018-07-10T01:12:06.350Z,18.30
2018-07-10T01:13:06.332Z,18.35
2018-07-10T01:14:06.324Z,18.33
2018-07-10T01:15:06.305Z,18.26
2018-07-10T01:16:06.293Z,18.27
2018-07-10T01:17:06.277Z,18.33
2018-07-10T01:18:06.264Z,18.27
2018-07-10T01:19:06.255Z,18.26
2018-07-10T01:20:06.237Z,18.23
2018-07-10T01:21:06.224Z,18.25
2018-07-10T01:22:06.209Z,18.15
2018-07-10T01:23:06.195Z,17.99
2018-07-10T01:24:06.182Z,18.00
2018-07-10T01:25:06.177Z,17.82
2018-07-10T01:26:06.155Z,17.79
2018-07-10T01:27:06.141Z,17.77
2018-07-10T01:28:06.128Z,17.79
2018-07-10T01:29:06.118Z,17.72
2018-07-10T01:30:06.099Z,17.66
2018-07-10T01:31:06.088Z,17.71
2018-07-10T01:32:06.072Z,17.78
2018-07-10T01:33:06.061Z,17.66
2018-07-10T01:34:06.048Z,17.68
2018-07-10T01:35:06.031Z,17.70
2018-07-10T01:36:06.018Z,17.75
2018-07-10T01:37:06.005Z,17.77
2018-07-10T01:38:05.988Z,17.55
2018-07-10T01:39:05.976Z,17.64
2018-07-10T01:40:05.961Z,17.68
2018-07-10T01:41:05.947Z,17.62
2018-07-10T01:42:05.936Z,17.62
2018-07-10T01:43:05.921Z,17.66
2018-07-10T01:44:05.906Z,17.66
2018-07-10T01:45:05.898Z,17.56
2018-07-10T01:46:05.879Z,17.59
2018-07-10T01:47:05.865Z,17.55
2018-07-10T01:48:05.851Z,17.48
2018-07-10T01:49:05.891Z,17.38
2018-07-10T01:50:05.824Z,17.46
2018-07-10T01:51:05.810Z,17.41
2018-07-10T01:52:05.801Z,17.48
2018-07-10T01:53:05.786Z,17.51
2018-07-10T01:54:05.771Z,17.43
2018-07-10T01:55:05.757Z,17.46
2018-07-10T01:56:05.745Z,17.46
2018-07-10T01:57:05.730Z,17.48
2018-07-10T01:58:05.713Z,17.46
2018-07-10T01:59:05.700Z,17.43
2018-07-10T02:00:05.688Z,17.43
2018-07-10T02:01:05.672Z,17.40
2018-07-10T02:02:05.657Z,17.48
2018-07-10T02:03:05.645Z,17.48
2018-07-10T02:04:05.633Z,17.48
2018-07-10T02:05:05.618Z,17.44
2018-07-10T02:06:05.603Z,17.41
2018-07-10T02:07:05.590Z,17.41
2018-07-10T02:08:05.577Z,17.38
2018-07-10T02:09:05.564Z,17.48
2018-07-10T02:10:05.549Z,17.44
2018-07-10T02:11:05.533Z,17.55
2018-07-10T02:12:05.521Z,17.44
2018-07-10T02:13:05.506Z,17.58
2018-07-10T02:14:05.507Z,17.58
2018-07-10T02:15:05.479Z,17.68
2018-07-10T02:16:05.465Z,17.62
2018-07-10T02:17:05.450Z,17.63
2018-07-10T02:18:05.436Z,17.66
2018-07-10T02:19:05.421Z,17.55
2018-07-10T02:20:05.413Z,17.66
2018-07-10T02:21:05.396Z,17.75
2018-07-10T02:22:05.378Z,17.78
2018-07-10T02:23:05.368Z,17.78
2018-07-10T02:24:05.353Z,17.86
2018-07-10T02:25:05.395Z,17.75
2018-07-10T02:26:05.376Z,17.75
2018-07-10T02:27:05.307Z,17.78
2018-07-10T02:28:05.298Z,17.78
2018-07-10T02:29:05.287Z,17.75
2018-07-10T02:30:05.268Z,17.64
2018-07-10T02:31:05.258Z,17.72
2018-07-10T02:32:05.240Z,17.63
2018-07-10T02:33:05.227Z,17.62
2018-07-10T02:34:05.215Z,17.54
2018-07-10T02:35:05.197Z,17.48
2018-07-10T02:36:05.196Z,17.46
2018-07-10T02:37:05.176Z,17.51
2018-07-10T02:38:05.154Z,17.40
2018-07-10T02:39:05.141Z,17.34
2018-07-10T02:40:05.126Z,17.34
2018-07-10T02:41:05.113Z,17.48
2018-07-10T02:42:05.101Z,17.33
2018-07-10T02:43:05.085Z,17.38
2018-07-10T02:44:05.071Z,17.44
2018-07-10T02:45:05.059Z,17.43
2018-07-10T02:46:05.040Z,17.34
2018-07-10T02:47:05.028Z,17.46
2018-07-10T02:48:05.012Z,17.44
2018-07-10T02:49:05.001Z,17.34
2018-07-10T02:50:04.983Z,17.41
2018-07-10T02:51:04.969Z,17.38
2018-07-10T02:52:04.957Z,17.37
2018-07-10T02:53:04.943Z,17.34
2018-07-10T02:54:04.925Z,17.44
2018-07-10T02:55:04.916Z,17.40
2018-07-10T02:56:04.901Z,17.44
2018-07-10T02:57:04.885Z,17.48
2018-07-10T02:58:04.875Z,17.36
2018-07-10T02:59:04.857Z,17.25
2018-07-10T03:00:04.844Z,17.36
2018-07-10T03:01:04.828Z,17.41
2018-07-10T03:02:04.813Z,17.43
2018-07-10T03:03:04.799Z,17.51
2018-07-10T03:04:04.784Z,17.44
2018-07-10T03:05:04.773Z,17.41
2018-07-10T03:06:04.757Z,17.37
2018-07-10T03:07:04.742Z,17.34
2018-07-10T03:08:04.732Z,17.40
2018-07-10T03:09:04.713Z,17.38
2018-07-10T03:10:04.708Z,17.46
2018-07-10T03:11:04.688Z,17.49
2018-07-10T03:12:04.668Z,17.48
2018-07-10T03:13:04.660Z,17.34
2018-07-10T03:14:04.640Z,17.41
2018-07-10T03:15:04.627Z,17.41
2018-07-10T03:16:04.613Z,17.46
2018-07-10T03:17:04.599Z,17.54
2018-07-10T03:18:04.584Z,17.58
2018-07-10T03:19:04.571Z,17.62
2018-07-10T03:20:04.560Z,17.71
2018-07-10T03:21:04.545Z,17.72
2018-07-10T03:22:04.529Z,17.58
2018-07-10T03:23:04.538Z,17.54
2018-07-10T03:24:04.499Z,17.68
2018-07-10T03:25:04.485Z,17.64
2018-07-10T03:26:04.467Z,17.64
2018-07-10T03:27:04.454Z,17.64
2018-07-10T03:28:04.440Z,17.55
2018-07-10T03:29:04.425Z,17.48
2018-07-10T03:30:04.424Z,17.43
2018-07-10T03:31:04.403Z,17.34
2018-07-10T03:32:04.381Z,17.40
2018-07-10T03:33:04.366Z,17.41
2018-07-10T03:34:04.354Z,17.41
2018-07-10T03:35:04.342Z,17.44
2018-07-10T03:36:04.324Z,17.43
2018-07-10T03:37:04.317Z,17.52
2018-07-10T03:38:04.298Z,17.46
2018-07-10T03:39:04.280Z,17.52
2018-07-10T03:40:04.269Z,17.58
2018-07-10T03:41:04.251Z,17.58
2018-07-10T03:42:04.238Z,17.68
2018-07-10T03:43:04.223Z,17.62
2018-07-10T03:44:04.207Z,17.58
2018-07-10T03:45:04.198Z,17.66
2018-07-10T03:46:04.179Z,17.58
2018-07-10T03:47:04.163Z,17.62
2018-07-10T03:48:04.150Z,17.52
2018-07-10T03:49:04.138Z,17.48
2018-07-10T03:50:04.119Z,17.28
2018-07-10T03:51:04.104Z,17.16
2018-07-10T03:52:04.094Z,17.18
2018-07-10T03:53:04.078Z,17.11
2018-07-10T03:54:04.060Z,17.14
2018-07-10T03:55:04.044Z,17.03
2018-07-10T03:56:04.033Z,17.08
2018-07-10T03:57:04.021Z,17.11
2018-07-10T03:58:04.001Z,17.11
2018-07-10T03:59:03.991Z,16.91
2018-07-10T04:00:03.972Z,17.08
2018-07-10T04:01:03.958Z,17.07
2018-07-10T04:02:03.942Z,17.00
2018-07-10T04:03:03.929Z,16.94
2018-07-10T04:04:03.915Z,17.15
2018-07-10T04:05:03.903Z,17.19
2018-07-10T04:06:03.889Z,17.22
2018-07-10T04:07:03.872Z,17.21
2018-07-10T04:08:03.857Z,17.18
2018-07-10T04:09:03.854Z,17.06
2018-07-10T04:10:03.828Z,17.04
2018-07-10T04:11:03.818Z,17.19
2018-07-10T04:12:03.799Z,17.21
2018-07-10T04:13:03.784Z,17.14
2018-07-10T04:14:03.768Z,17.14
2018-07-10T04:15:03.755Z,17.21
2018-07-10T04:16:03.741Z,17.31
2018-07-10T04:17:03.726Z,17.25
2018-07-10T04:18:03.715Z,17.18
2018-07-10T04:19:03.699Z,16.96
2018-07-10T04:20:03.684Z,17.00
2018-07-10T04:21:03.668Z,17.01
2018-07-10T04:22:03.655Z,17.08
2018-07-10T04:23:03.644Z,17.01
2018-07-10T04:24:03.638Z,17.07
2018-07-10T04:25:03.608Z,17.14
2018-07-10T04:26:03.600Z,17.07
2018-07-10T04:27:03.589Z,17.08
2018-07-10T04:28:03.565Z,17.06
2018-07-10T04:29:03.556Z,16.89
2018-07-10T04:30:03.538Z,16.94
2018-07-10T04:31:03.520Z,17.14
2018-07-10T04:32:03.512Z,17.14
2018-07-10T04:33:03.501Z,17.14
2018-07-10T04:34:03.477Z,17.23
2018-07-10T04:35:03.466Z,17.23
2018-07-10T04:36:03.450Z,17.36
2018-07-10T04:37:03.435Z,17.28
2018-07-10T04:38:03.423Z,17.25
2018-07-10T04:39:03.415Z,17.18
2018-07-10T04:40:03.392Z,17.14
2018-07-10T04:41:03.378Z,17.19
2018-07-10T04:42:03.367Z,17.15
2018-07-10T04:43:03.348Z,17.16
2018-07-10T04:44:03.334Z,17.12
2018-07-10T04:45:03.323Z,17.31
2018-07-10T04:46:03.305Z,17.26
2018-07-10T04:47:03.293Z,17.22
2018-07-10T04:48:03.276Z,17.21
2018-07-10T04:49:03.283Z,17.28
2018-07-10T04:50:03.250Z,17.36
2018-07-10T04:51:03.233Z,17.36
2018-07-10T04:52:03.219Z,17.44
2018-07-10T04:53:03.208Z,17.41
2018-07-10T04:54:03.192Z,17.28
2018-07-10T04:55:03.177Z,17.28
2018-07-10T04:56:03.161Z,17.34
2018-07-10T04:57:03.147Z,17.31
2018-07-10T04:58:03.131Z,17.36
2018-07-10T04:59:03.118Z,17.34
2018-07-10T05:00:03.106Z,17.40
2018-07-10T05:01:03.095Z,17.40
2018-07-10T05:02:03.077Z,17.31
2018-07-10T05:03:03.061Z,17.22
2018-07-10T05:04:03.046Z,17.16
2018-07-10T05:05:03.031Z,17.31
2018-07-10T05:06:03.019Z,17.36
2018-07-10T05:07:03.002Z,17.36
2018-07-10T05:08:02.987Z,17.31
2018-07-10T05:09:02.975Z,17.26
2018-07-10T05:10:02.958Z,17.33
2018-07-10T05:11:02.944Z,17.31
2018-07-10T05:12:02.999Z,17.38
2018-07-10T05:13:02.915Z,17.34
2018-07-10T05:14:02.910Z,17.38
2018-07-10T05:15:02.888Z,17.36
2018-07-10T05:16:02.874Z,17.41
2018-07-10T05:17:02.860Z,17.52
2018-07-10T05:18:02.845Z,17.56
2018-07-10T05:19:02.829Z,17.64
2018-07-10T05:20:02.817Z,17.54
2018-07-10T05:21:02.801Z,17.70
2018-07-10T05:22:02.786Z,17.55
2018-07-10T05:23:02.816Z,17.55
2018-07-10T05:24:02.765Z,17.44
2018-07-10T05:25:02.743Z,17.48
2018-07-10T05:26:02.730Z,17.46
2018-07-10T05:27:02.715Z,17.41
2018-07-10T05:28:02.701Z,17.37
2018-07-10T05:29:02.720Z,17.44
2018-07-10T05:30:02.678Z,17.55
2018-07-10T05:31:02.666Z,17.54
2018-07-10T05:32:02.644Z,17.56
2018-07-10T05:33:02.631Z,17.58
2018-07-10T05:34:02.617Z,17.59
2018-07-10T05:35:02.600Z,17.48
2018-07-10T05:36:02.590Z,17.51
2018-07-10T05:37:02.573Z,17.46
2018-07-10T05:38:02.557Z,17.44
2018-07-10T05:39:02.543Z,17.44
2018-07-10T05:40:02.530Z,17.41
2018-07-10T05:41:02.519Z,17.38
2018-07-10T05:42:02.503Z,17.46
2018-07-10T05:43:02.490Z,17.51
2018-07-10T05:44:02.471Z,17.54
2018-07-10T05:45:02.462Z,17.52
2018-07-10T05:46:02.445Z,17.55
2018-07-10T05:47:02.432Z,17.48
2018-07-10T05:48:02.418Z,17.41
2018-07-10T05:49:02.406Z,17.41
2018-07-10T05:50:02.388Z,17.38
2018-07-10T05:51:02.374Z,17.30
2018-07-10T05:52:02.445Z,17.38
2018-07-10T05:53:02.349Z,17.34
2018-07-10T05:54:02.331Z,17.34
2018-07-10T05:55:02.318Z,17.46
2018-07-10T05:56:02.300Z,17.43
2018-07-10T05:57:02.289Z,17.44
2018-07-10T05:58:02.274Z,17.44
2018-07-10T05:59:02.262Z,17.52
2018-07-10T06:00:02.247Z,17.58
2018-07-10T06:01:02.230Z,17.54
2018-07-10T06:02:02.228Z,17.66
2018-07-10T06:03:02.205Z,17.52
2018-07-10T06:04:02.190Z,17.55
2018-07-10T06:05:02.179Z,17.55
2018-07-10T06:06:02.160Z,17.51
2018-07-10T06:07:02.148Z,17.54
2018-07-10T06:08:02.134Z,17.44
2018-07-10T06:09:02.122Z,17.46
2018-07-10T06:10:02.108Z,17.38
2018-07-10T06:11:02.091Z,17.26
2018-07-10T06:12:02.075Z,17.36
2018-07-10T06:13:02.062Z,17.44
2018-07-10T06:14:02.076Z,17.58
2018-07-10T06:15:02.034Z,17.55
2018-07-10T06:16:02.021Z,17.59
2018-07-10T06:17:02.006Z,17.58
2018-07-10T06:18:01.989Z,17.75
2018-07-10T06:19:01.990Z,17.79
2018-07-10T06:20:01.964Z,17.75
2018-07-10T06:21:01.948Z,17.78
2018-07-10T06:22:01.932Z,17.82
2018-07-10T06:23:01.920Z,17.79
2018-07-10T06:24:01.906Z,17.86
2018-07-10T06:25:01.891Z,17.75
2018-07-10T06:26:01.878Z,17.71
2018-07-10T06:27:01.865Z,17.70
2018-07-10T06:28:01.848Z,17.70
2018-07-10T06:29:01.840Z,17.75
2018-07-10T06:30:01.820Z,17.72
2018-07-10T06:31:01.804Z,17.70
2018-07-10T06:32:01.794Z,17.75
2018-07-10T06:33:01.777Z,17.79
2018-07-10T06:34:01.762Z,17.77
2018-07-10T06:35:01.747Z,17.84
2018-07-10T06:36:01.734Z,17.72
2018-07-10T06:37:01.722Z,17.89
2018-07-10T06:38:01.709Z,17.90
2018-07-10T06:39:01.692Z,17.87
2018-07-10T06:40:01.676Z,17.97
2018-07-10T06:41:01.663Z,18.03
2018-07-10T06:42:01.645Z,18.02
2018-07-10T06:43:01.633Z,18.15
2018-07-10T06:44:01.622Z,18.12
2018-07-10T06:45:01.612Z,18.14
2018-07-10T06:46:01.593Z,18.21
2018-07-10T06:47:01.579Z,18.23
2018-07-10T06:48:01.563Z,18.29
2018-07-10T06:49:01.553Z,18.25
2018-07-10T06:50:01.531Z,18.33
2018-07-10T06:51:01.520Z,18.30
2018-07-10T06:52:01.507Z,18.35
2018-07-10T06:53:01.739Z,18.33
2018-07-10T06:54:01.477Z,18.35
2018-07-10T06:55:01.466Z,18.32
2018-07-10T06:56:01.449Z,18.41
2018-07-10T06:57:01.435Z,18.44
2018-07-10T06:58:01.424Z,18.50
2018-07-10T06:59:01.406Z,18.58
2018-07-10T07:00:01.397Z,18.66
2018-07-10T07:01:01.379Z,18.72
2018-07-10T07:02:01.365Z,18.81
2018-07-10T07:03:01.349Z,18.76
2018-07-10T07:04:01.341Z,18.81
2018-07-10T07:05:01.324Z,18.78
2018-07-10T07:06:01.309Z,18.91
2018-07-10T07:07:01.297Z,18.87
2018-07-10T07:08:01.346Z,18.92
2018-07-10T07:09:01.269Z,18.84
2018-07-10T07:10:01.255Z,18.87
2018-07-10T07:11:01.240Z,18.87
2018-07-10T07:12:01.227Z,18.90
2018-07-10T07:13:01.216Z,18.82
2018-07-10T07:14:01.207Z,18.94
2018-07-10T07:15:01.190Z,18.80
2018-07-10T07:16:01.173Z,18.85
2018-07-10T07:17:01.159Z,18.84
2018-07-10T07:18:01.145Z,18.81
2018-07-10T07:19:01.131Z,18.91
2018-07-10T07:20:01.118Z,19.02
2018-07-10T07:21:01.104Z,19.10
2018-07-10T07:22:01.102Z,19.10
2018-07-10T07:23:01.083Z,19.19
2018-07-10T07:24:01.065Z,19.14
2018-07-10T07:25:01.057Z,19.06
2018-07-10T07:26:01.038Z,19.16
2018-07-10T07:27:01.026Z,19.06
2018-07-10T07:28:01.012Z,19.11
2018-07-10T07:29:00.997Z,19.18
2018-07-10T07:30:00.985Z,19.19
2018-07-10T07:31:00.972Z,19.16
2018-07-10T07:32:00.959Z,19.28
2018-07-10T07:33:00.947Z,19.32
2018-07-10T07:34:00.935Z,19.33
2018-07-10T07:35:00.966Z,19.37
2018-07-10T07:36:00.908Z,19.31
2018-07-10T07:37:00.892Z,19.33
2018-07-10T07:38:00.879Z,19.36
2018-07-10T07:39:00.868Z,19.32
2018-07-10T07:40:00.854Z,19.29
2018-07-10T07:41:00.842Z,19.25
2018-07-10T07:42:00.829Z,19.21
2018-07-10T07:43:00.814Z,19.28
2018-07-10T07:44:00.933Z,19.21
2018-07-10T07:45:00.788Z,19.06
2018-07-10T07:46:00.776Z,18.98
2018-07-10T07:47:00.763Z,19.16
2018-07-10T07:48:00.750Z,18.98
2018-07-10T07:49:00.737Z,19.04
2018-07-10T07:50:00.733Z,19.06
2018-07-10T07:51:00.709Z,19.10
2018-07-10T07:52:00.698Z,19.21
2018-07-10T07:53:00.688Z,19.16
2018-07-10T07:54:00.671Z,19.29
2018-07-10T07:55:00.665Z,19.31
2018-07-10T07:56:00.645Z,19.26
2018-07-10T07:57:00.632Z,19.33
2018-07-10T07:58:00.620Z,19.39
2018-07-10T07:59:00.609Z,19.48
2018-07-10T08:00:00.595Z,19.47
2018-07-10T08:01:00.582Z,19.47
2018-07-10T08:02:00.567Z,19.50
2018-07-10T08:03:00.558Z,19.55
2018-07-10T08:04:00.540Z,19.63
2018-07-10T08:05:00.528Z,19.87
2018-07-10T08:06:00.515Z,19.87
2018-07-10T08:07:00.504Z,20.02
2018-07-10T08:08:00.489Z,19.94
2018-07-10T08:09:00.477Z,19.98
2018-07-10T08:10:00.464Z,20.32
2018-07-10T08:11:00.451Z,20.32
2018-07-10T08:12:00.438Z,20.35
2018-07-10T08:13:00.425Z,20.35
2018-07-10T08:14:00.418Z,20.42
2018-07-10T08:15:00.401Z,20.36
2018-07-10T08:16:00.389Z,20.52
2018-07-10T08:17:00.379Z,20.54
2018-07-10T08:18:00.368Z,20.69
2018-07-10T08:19:00.352Z,20.74
2018-07-10T08:20:00.344Z,20.76
2018-07-10T08:21:01.140Z,20.69
2018-07-10T08:22:00.313Z,20.70
2018-07-10T08:23:00.303Z,20.66
2018-07-10T08:24:00.294Z,20.76
2018-07-10T08:25:00.280Z,20.80
2018-07-10T08:26:00.266Z,20.85
2018-07-10T08:27:00.257Z,20.67
2018-07-10T08:28:00.243Z,20.66
2018-07-10T08:29:00.236Z,20.88
2018-07-10T08:30:00.218Z,20.82
2018-07-10T08:31:00.205Z,20.82
2018-07-10T08:32:00.199Z,20.87
2018-07-10T08:33:00.187Z,20.97
2018-07-10T08:34:00.247Z,20.95
2018-07-10T08:35:00.159Z,20.97
2018-07-10T08:36:00.151Z,20.97
2018-07-10T08:37:00.136Z,20.88
2018-07-10T08:38:00.133Z,20.84
2018-07-10T08:39:00.116Z,20.72
2018-07-10T08:40:00.110Z,20.32
2018-07-10T08:41:00.089Z,20.13
2018-07-10T08:42:00.080Z,19.99
2018-07-10T08:43:00.071Z,19.81
2018-07-10T08:44:00.055Z,19.68
2018-07-10T08:45:00.075Z,19.55
2018-07-10T08:46:00.032Z,19.55
2018-07-10T08:47:00.018Z,19.50
2018-07-10T08:48:00.017Z,19.47
2018-07-10T08:48:59.995Z,19.50
2018-07-10T08:49:59.984Z,19.59
2018-07-10T08:50:59.970Z,19.37
2018-07-10T08:51:59.958Z,19.47
2018-07-10T08:52:59.951Z,19.59
2018-07-10T08:53:59.934Z,19.48
2018-07-10T08:54:59.926Z,19.50
2018-07-10T08:55:59.916Z,19.68
2018-07-10T08:56:59.901Z,19.81
2018-07-10T08:57:59.888Z,19.99
2018-07-10T08:58:59.881Z,20.35
2018-07-10T08:59:59.866Z,20.52
2018-07-10T09:00:59.860Z,20.61
2018-07-10T09:01:59.841Z,20.69
2018-07-10T09:02:59.829Z,20.41
2018-07-10T09:03:59.824Z,20.29
2018-07-10T09:04:59.811Z,20.36
2018-07-10T09:05:59.797Z,20.36
2018-07-10T09:06:59.784Z,20.35
2018-07-10T09:07:59.856Z,20.38
2018-07-10T09:08:59.763Z,20.38
2018-07-10T09:09:59.750Z,20.33
2018-07-10T09:10:59.741Z,20.29
2018-07-10T09:11:59.733Z,20.38
2018-07-10T09:12:59.715Z,20.39
2018-07-10T09:13:59.767Z,20.31
2018-07-10T09:14:59.692Z,20.42
2018-07-10T09:15:59.681Z,20.36
2018-07-10T09:16:59.670Z,20.54
2018-07-10T09:17:59.660Z,20.42
2018-07-10T09:18:59.648Z,20.52
2018-07-10T09:19:59.638Z,20.64
2018-07-10T09:20:59.625Z,20.64
2018-07-10T09:21:59.613Z,20.64
2018-07-10T09:22:59.604Z,20.74
2018-07-10T09:23:59.593Z,20.87
2018-07-10T09:24:59.578Z,20.95
2018-07-10T09:25:59.571Z,20.97
2018-07-10T09:26:59.555Z,21.04
2018-07-10T09:27:59.555Z,20.97
2018-07-10T09:28:59.538Z,20.87
2018-07-10T09:29:59.523Z,20.76
2018-07-10T09:30:59.514Z,20.57
2018-07-10T09:31:59.504Z,20.66
2018-07-10T09:32:59.494Z,20.58
2018-07-10T09:33:59.479Z,20.67
2018-07-10T09:34:59.468Z,20.50
2018-07-10T09:35:59.456Z,20.36
2018-07-10T09:36:59.445Z,20.42
2018-07-10T09:37:59.452Z,20.38
2018-07-10T09:38:59.422Z,20.55
2018-07-10T09:39:59.432Z,20.50
2018-07-10T09:40:59.402Z,20.54
2018-07-10T09:41:59.392Z,20.69
2018-07-10T09:42:59.376Z,20.80
2018-07-10T09:43:59.415Z,20.91
2018-07-10T09:44:59.354Z,21.03
2018-07-10T09:45:59.343Z,21.04
2018-07-10T09:46:59.396Z,21.22
2018-07-10T09:47:59.322Z,21.31
2018-07-10T09:48:59.316Z,21.28
2018-07-10T09:49:59.301Z,21.79
2018-07-10T09:50:59.287Z,21.92
2018-07-10T09:51:59.280Z,22.60
2018-07-10T09:52:59.270Z,23.15
2018-07-10T09:53:59.256Z,23.88
2018-07-10T09:54:59.438Z,24.68
2018-07-10T09:55:59.235Z,25.39
2018-07-10T09:56:59.228Z,25.91
2018-07-10T09:57:59.216Z,26.51
2018-07-10T09:58:59.207Z,27.06
2018-07-10T09:59:59.203Z,27.69
2018-07-10T10:00:59.192Z,28.77
2018-07-10T10:01:59.248Z,29.52
2018-07-10T10:02:59.180Z,30.01
2018-07-10T10:03:59.168Z,30.43
2018-07-10T10:04:59.162Z,30.86
2018-07-10T10:05:59.155Z,31.25
2018-07-10T10:06:59.155Z,31.84
2018-07-10T10:07:59.148Z,32.60
2018-07-10T10:08:59.143Z,33.16
2018-07-10T10:09:59.133Z,33.75
2018-07-10T10:10:59.133Z,34.46
2018-07-10T10:11:59.125Z,34.78
2018-07-10T10:12:59.119Z,35.00
2018-07-10T10:13:59.114Z,35.68
2018-07-10T10:14:59.113Z,35.90
2018-07-10T10:15:59.108Z,35.38
2018-07-10T10:16:59.105Z,34.80
2018-07-10T10:17:59.101Z,34.21
2018-07-10T10:18:59.097Z,33.42
2018-07-10T10:19:59.097Z,33.53
2018-07-10T10:20:59.093Z,33.41
2018-07-10T10:21:59.088Z,32.25
2018-07-10T10:22:59.084Z,31.17
2018-07-10T10:23:59.080Z,30.57
2018-07-10T10:24:59.082Z,30.07
2018-07-10T10:25:59.077Z,29.46
2018-07-10T10:26:59.073Z,28.89
2018-07-10T10:27:59.070Z,29.05
2018-07-10T10:28:59.066Z,28.86
2018-07-10T10:29:59.062Z,29.08
2018-07-10T10:30:59.063Z,29.21
2018-07-10T10:31:59.056Z,29.04
2018-07-10T10:32:59.054Z,29.16
2018-07-10T10:33:59.051Z,29.24
2018-07-10T10:34:59.047Z,29.19
2018-07-10T10:35:59.047Z,29.34
2018-07-10T10:36:59.047Z,29.27
2018-07-10T10:37:59.039Z,28.85
2018-07-10T10:38:59.043Z,28.74
2018-07-10T10:39:59.030Z,28.52
2018-07-10T10:40:59.036Z,28.30
2018-07-10T10:41:59.025Z,27.75
2018-07-10T10:42:59.023Z,27.40
2018-07-10T10:43:59.017Z,27.17
2018-07-10T10:44:59.014Z,27.13
2018-07-10T10:45:59.009Z,27.04
2018-07-10T10:46:59.006Z,26.80
2018-07-10T10:47:59.001Z,26.52
2018-07-10T10:48:58.998Z,26.35
2018-07-10T10:49:58.996Z,26.09
2018-07-10T10:50:58.990Z,25.75
2018-07-10T10:51:58.991Z,25.61
2018-07-10T10:52:58.984Z,25.73
2018-07-10T10:53:58.978Z,25.60
2018-07-10T10:54:59.041Z,25.35
2018-07-10T10:55:58.978Z,25.13
2018-07-10T10:56:58.963Z,25.09
2018-07-10T10:57:58.956Z,24.85
2018-07-10T10:58:58.954Z,24.53
2018-07-10T10:59:58.947Z,24.37
2018-07-10T11:00:58.943Z,24.22
2018-07-10T11:01:58.936Z,24.06
2018-07-10T11:02:58.933Z,23.94
2018-07-10T11:03:58.928Z,23.93
2018-07-10T11:04:58.922Z,23.93
2018-07-10T11:05:58.916Z,24.06
2018-07-10T11:06:58.909Z,23.97
2018-07-10T11:07:58.909Z,23.94
2018-07-10T11:08:58.899Z,24.03
2018-07-10T11:09:58.899Z,24.06
2018-07-10T11:10:58.894Z,24.06
2018-07-10T11:11:58.879Z,23.66
2018-07-10T11:12:58.928Z,23.48
2018-07-10T11:13:58.867Z,23.33
2018-07-10T11:14:58.862Z,23.27
2018-07-10T11:15:58.857Z,23.40
2018-07-10T11:16:58.857Z,23.55
2018-07-10T11:17:58.845Z,23.79
2018-07-10T11:18:58.838Z,23.95
2018-07-10T11:19:58.829Z,23.90
2018-07-10T11:20:58.822Z,24.09
2018-07-10T11:21:58.814Z,24.08
2018-07-10T11:22:58.808Z,24.12
2018-07-10T11:23:58.804Z,24.30
2018-07-10T11:24:58.800Z,24.15
2018-07-10T11:25:58.785Z,24.06
2018-07-10T11:26:58.782Z,24.27
2018-07-10T11:27:58.775Z,24.39
2018-07-10T11:28:58.768Z,24.47
2018-07-10T11:29:58.758Z,24.27
2018-07-10T11:30:58.751Z,24.34
2018-07-10T11:31:58.758Z,24.30
2018-07-10T11:32:58.738Z,24.31
2018-07-10T11:33:58.732Z,24.27
2018-07-10T11:34:58.729Z,24.25
2018-07-10T11:35:58.723Z,24.18
2018-07-10T11:36:58.711Z,24.27
2018-07-10T11:37:58.704Z,24.31
2018-07-10T11:38:58.748Z,24.22
2018-07-10T11:39:58.690Z,24.32
2018-07-10T11:40:58.686Z,24.46
2018-07-10T11:41:58.680Z,24.47
2018-07-10T11:42:58.668Z,24.10
2018-07-10T11:43:58.666Z,24.06
2018-07-10T11:44:58.657Z,23.88
2018-07-10T11:45:58.648Z,23.98
2018-07-10T11:46:58.643Z,23.85
2018-07-10T11:47:58.636Z,23.95
2018-07-10T11:48:58.626Z,24.00
2018-07-10T11:49:58.633Z,24.09
2018-07-10T11:50:58.619Z,23.84
2018-07-10T11:51:58.607Z,23.58
2018-07-10T11:52:58.600Z,23.32
2018-07-10T11:53:58.596Z,23.10
2018-07-10T11:54:58.587Z,23.04
2018-07-10T11:55:58.575Z,22.83
2018-07-10T11:56:58.574Z,22.70
2018-07-10T11:57:58.562Z,22.52
2018-07-10T11:58:58.558Z,22.49
2018-07-10T11:59:58.553Z,22.25
2018-07-10T12:00:58.539Z,22.27
2018-07-10T12:01:58.583Z,21.99
2018-07-10T12:02:58.522Z,22.05
2018-07-10T12:03:58.516Z,21.96
2018-07-10T12:04:58.511Z,22.15
2018-07-10T12:05:58.508Z,22.07
2018-07-10T12:06:58.490Z,22.22
2018-07-10T12:07:58.483Z,22.21
2018-07-10T12:08:58.474Z,22.36
2018-07-10T12:09:58.468Z,22.18
2018-07-10T12:10:58.458Z,22.07
2018-07-10T12:11:58.447Z,21.86
2018-07-10T12:12:58.440Z,21.77
2018-07-10T12:13:58.430Z,21.67
2018-07-10T12:14:58.429Z,21.65
2018-07-10T12:15:58.410Z,21.53
2018-07-10T12:16:58.407Z,21.38
2018-07-10T12:17:58.395Z,21.49
2018-07-10T12:18:58.389Z,21.49
2018-07-10T12:19:58.375Z,21.37
2018-07-10T12:20:58.371Z,21.27
2018-07-10T12:21:58.362Z,21.21
2018-07-10T12:22:58.348Z,21.34
2018-07-10T12:23:58.338Z,21.31
2018-07-10T12:24:58.329Z,21.37
2018-07-10T12:25:58.317Z,21.49
2018-07-10T12:26:58.310Z,21.37
2018-07-10T12:27:58.329Z,21.32
2018-07-10T12:28:58.292Z,21.16
2018-07-10T12:29:58.282Z,20.99
2018-07-10T12:30:58.276Z,20.89
2018-07-10T12:31:58.267Z,20.88
2018-07-10T12:32:58.250Z,20.87
2018-07-10T12:33:58.240Z,20.87
2018-07-10T12:34:58.252Z,20.80
2018-07-10T12:35:58.226Z,20.77
2018-07-10T12:36:58.213Z,20.80
2018-07-10T12:37:58.200Z,20.89
2018-07-10T12:38:58.190Z,20.88
2018-07-10T12:39:58.180Z,20.84
2018-07-10T12:40:58.171Z,20.88
2018-07-10T12:41:58.160Z,20.80
2018-07-10T12:42:58.148Z,20.70
2018-07-10T12:43:58.139Z,20.59
2018-07-10T12:44:58.127Z,20.39
2018-07-10T12:45:58.119Z,20.48
2018-07-10T12:46:58.108Z,20.38
2018-07-10T12:47:58.097Z,20.35
2018-07-10T12:48:58.088Z,20.39
2018-07-10T12:49:58.077Z,20.24
2018-07-10T12:50:58.069Z,20.21
2018-07-10T12:51:58.053Z,20.26